createdAt,value
2023-04-26T00:00:53.472Z,4.20
2023-04-26T00:01:53.432Z,4.20
2023-04-26T00:02:53.701Z,4.50
2023-04-26T00:03:53.723Z,4.00
2023-04-26T00:04:53.750Z,4.20
2023-04-26T00:05:53.415Z,4.30
2023-04-26T00:06:53.367Z,4.70
2023-04-26T00:07:53.353Z,4.50
2023-04-26T00:08:53.873Z,4.40
2023-04-26T00:09:53.332Z,4.00
2023-04-26T00:10:53.319Z,4.00
2023-04-26T00:11:53.300Z,4.60
2023-04-26T00:12:53.292Z,4.10
2023-04-26T00:13:53.291Z,4.90
2023-04-26T00:14:53.258Z,4.10
2023-04-26T00:15:53.366Z,4.30
2023-04-26T00:16:53.256Z,5.10
2023-04-26T00:17:53.283Z,4.30
2023-04-26T00:18:53.519Z,4.20
2023-04-26T00:19:53.306Z,4.30
2023-04-26T00:20:53.224Z,4.00
2023-04-26T00:21:53.184Z,4.80
2023-04-26T00:22:53.177Z,4.30
2023-04-26T00:23:53.182Z,4.60
2023-04-26T00:24:53.150Z,4.90
2023-04-26T00:25:53.122Z,4.00
2023-04-26T00:26:53.124Z,4.10
2023-04-26T00:27:53.092Z,4.00
2023-04-26T00:28:53.419Z,4.40
2023-04-26T00:29:53.072Z,4.40
2023-04-26T00:30:53.157Z,4.70
2023-04-26T00:31:53.078Z,4.50
2023-04-26T00:32:53.060Z,4.50
2023-04-26T00:33:53.040Z,4.50
2023-04-26T00:34:53.021Z,4.50
2023-04-26T00:35:53.031Z,4.00
2023-04-26T00:36:53.000Z,4.30
2023-04-26T00:37:52.973Z,4.20
2023-04-26T00:38:53.219Z,4.50
2023-04-26T00:39:52.958Z,4.40
2023-04-26T00:40:52.939Z,4.50
2023-04-26T00:41:52.933Z,4.40
2023-04-26T00:42:52.924Z,4.60
2023-04-26T00:43:52.910Z,4.40
2023-04-26T00:44:52.902Z,4.80
2023-04-26T00:45:52.884Z,4.60
2023-04-26T00:46:52.880Z,4.70
2023-04-26T00:47:52.892Z,4.50
2023-04-26T00:48:53.332Z,4.00
2023-04-26T00:49:52.842Z,4.90
2023-04-26T00:50:52.812Z,4.50
2023-04-26T00:51:52.794Z,5.40
2023-04-26T00:52:52.784Z,4.20
2023-04-26T00:53:52.770Z,4.40
2023-04-26T00:54:52.787Z,4.40
2023-04-26T00:55:52.793Z,4.40
2023-04-26T00:56:52.736Z,4.60
2023-04-26T00:57:52.729Z,4.50
2023-04-26T00:58:53.034Z,4.20
2023-04-26T00:59:52.703Z,4.40
2023-04-26T01:00:52.731Z,4.60
2023-04-26T01:01:52.671Z,4.80
2023-04-26T01:02:52.773Z,4.50
2023-04-26T01:03:52.774Z,4.50
2023-04-26T01:04:52.642Z,4.80
2023-04-26T01:05:52.622Z,4.80
2023-04-26T01:06:52.605Z,4.30
2023-04-26T01:07:52.599Z,4.60
2023-04-26T01:08:53.078Z,4.40
2023-04-26T01:09:52.576Z,4.50
2023-04-26T01:10:52.566Z,4.70
2023-04-26T01:11:52.553Z,4.80
2023-04-26T01:12:52.532Z,4.70
2023-04-26T01:13:52.531Z,4.40
2023-04-26T01:14:52.508Z,4.50
2023-04-26T01:15:52.499Z,4.50
2023-04-26T01:16:52.576Z,4.20
2023-04-26T01:17:52.544Z,4.60
2023-04-26T01:18:52.859Z,4.40
2023-04-26T01:19:52.455Z,4.50
2023-04-26T01:20:52.432Z,4.30
2023-04-26T01:21:52.424Z,4.20
2023-04-26T01:22:52.425Z,4.30
2023-04-26T01:23:52.401Z,4.20
2023-04-26T01:24:52.411Z,4.20
2023-04-26T01:25:52.367Z,4.50
2023-04-26T01:26:52.380Z,4.60
2023-04-26T01:27:52.367Z,4.40
2023-04-26T01:28:52.543Z,4.60
2023-04-26T01:29:52.537Z,4.70
2023-04-26T01:30:52.382Z,4.20
2023-04-26T01:31:52.298Z,4.60
2023-04-26T01:32:52.356Z,4.30
2023-04-26T01:33:52.284Z,4.40
2023-04-26T01:34:52.250Z,4.50
2023-04-26T01:35:52.263Z,4.70
2023-04-26T01:36:52.232Z,4.40
2023-04-26T01:37:52.216Z,4.30
2023-04-26T01:38:52.468Z,4.40
2023-04-26T01:39:52.186Z,4.30
2023-04-26T01:40:52.176Z,4.70
2023-04-26T01:41:52.165Z,4.30
2023-04-26T01:42:52.160Z,4.80
2023-04-26T01:43:52.136Z,4.30
2023-04-26T01:44:52.146Z,4.40
2023-04-26T01:45:52.113Z,4.20
2023-04-26T01:46:52.128Z,4.90
2023-04-26T01:47:52.134Z,4.40
2023-04-26T01:48:52.468Z,4.20
2023-04-26T01:49:52.091Z,5.10
2023-04-26T01:50:52.058Z,4.30
2023-04-26T01:51:52.040Z,4.30
2023-04-26T01:52:52.030Z,3.90
2023-04-26T01:53:52.033Z,4.60
2023-04-26T01:54:52.016Z,4.70
2023-04-26T01:55:51.983Z,4.30
2023-04-26T01:56:51.973Z,4.00
2023-04-26T01:57:51.971Z,4.00
2023-04-26T01:58:52.184Z,3.90
2023-04-26T01:59:51.946Z,4.20
2023-04-26T02:00:51.934Z,4.20
2023-04-26T02:01:51.972Z,4.20
2023-04-26T02:02:51.962Z,4.50
2023-04-26T02:03:51.897Z,4.40
2023-04-26T02:04:51.937Z,4.50
2023-04-26T02:05:51.859Z,4.30
2023-04-26T02:06:51.856Z,4.40
2023-04-26T02:07:51.834Z,4.00
2023-04-26T02:08:52.137Z,4.20
2023-04-26T02:09:51.839Z,4.50
2023-04-26T02:10:51.802Z,4.00
2023-04-26T02:11:51.785Z,4.00
2023-04-26T02:12:51.781Z,3.80
2023-04-26T02:13:51.760Z,4.50
2023-04-26T02:14:51.786Z,4.20
2023-04-26T02:15:51.828Z,3.80
2023-04-26T02:16:51.741Z,4.60
2023-04-26T02:17:51.772Z,4.00
2023-04-26T02:18:51.835Z,3.80
2023-04-26T02:19:51.720Z,4.10
2023-04-26T02:20:51.716Z,4.20
2023-04-26T02:21:51.670Z,4.10
2023-04-26T02:22:51.662Z,4.30
2023-04-26T02:23:51.645Z,4.50
2023-04-26T02:24:51.653Z,4.20
2023-04-26T02:25:51.626Z,4.10
2023-04-26T02:26:51.611Z,4.80
2023-04-26T02:27:51.582Z,4.20
2023-04-26T02:28:51.784Z,4.20
2023-04-26T02:29:51.586Z,4.10
2023-04-26T02:30:51.548Z,4.00
2023-04-26T02:31:51.641Z,4.20
2023-04-26T02:32:51.554Z,4.20
2023-04-26T02:33:51.516Z,4.00
2023-04-26T02:34:51.514Z,4.10
2023-04-26T02:35:51.502Z,4.10
2023-04-26T02:36:51.480Z,4.40
2023-04-26T02:37:51.467Z,4.20
2023-04-26T02:38:51.576Z,4.40
2023-04-26T02:39:51.446Z,3.90
2023-04-26T02:40:51.439Z,4.20
2023-04-26T02:41:51.401Z,4.40
2023-04-26T02:42:51.400Z,4.10
2023-04-26T02:43:51.388Z,4.20
2023-04-26T02:44:51.412Z,4.20
2023-04-26T02:45:51.399Z,4.20
2023-04-26T02:46:51.400Z,4.60
2023-04-26T02:47:51.379Z,3.90
2023-04-26T02:48:51.516Z,3.80
2023-04-26T02:49:51.334Z,3.80
2023-04-26T02:50:51.304Z,4.10
2023-04-26T02:51:51.288Z,4.40
2023-04-26T02:52:51.276Z,4.10
2023-04-26T02:53:51.260Z,3.90
2023-04-26T02:54:51.256Z,4.40
2023-04-26T02:55:51.256Z,4.10
2023-04-26T02:56:51.248Z,4.10
2023-04-26T02:57:51.198Z,4.40
2023-04-26T02:58:51.571Z,3.80
2023-04-26T02:59:51.191Z,3.80
2023-04-26T03:00:51.225Z,3.90
2023-04-26T03:01:51.166Z,4.10
2023-04-26T03:02:51.347Z,4.20
2023-04-26T03:03:51.194Z,4.00
2023-04-26T03:04:51.146Z,3.80
2023-04-26T03:05:51.107Z,4.50
2023-04-26T03:06:51.092Z,4.30
2023-04-26T03:07:51.071Z,4.60
2023-04-26T03:08:51.246Z,3.90
2023-04-26T03:09:51.077Z,4.20
2023-04-26T03:10:51.042Z,3.80
2023-04-26T03:11:51.035Z,3.90
2023-04-26T03:12:51.043Z,4.00
2023-04-26T03:13:51.008Z,4.50
2023-04-26T03:14:51.021Z,4.00
2023-04-26T03:15:50.980Z,4.40
2023-04-26T03:16:51.034Z,3.70
2023-04-26T03:17:51.000Z,3.70
2023-04-26T03:18:51.313Z,4.10
2023-04-26T03:19:51.022Z,4.20
2023-04-26T03:20:50.930Z,4.20
2023-04-26T03:21:50.901Z,4.30
2023-04-26T03:22:50.901Z,4.50
2023-04-26T03:23:50.876Z,4.40
2023-04-26T03:24:50.872Z,4.30
2023-04-26T03:25:50.874Z,4.10
2023-04-26T03:26:50.854Z,4.10
2023-04-26T03:27:50.826Z,4.70
2023-04-26T03:28:50.926Z,4.50
2023-04-26T03:29:50.818Z,4.30
2023-04-26T03:30:50.830Z,4.00
2023-04-26T03:31:50.833Z,4.30
2023-04-26T03:32:50.798Z,4.90
2023-04-26T03:33:50.754Z,4.40
2023-04-26T03:34:50.734Z,4.30
2023-04-26T03:35:50.746Z,4.00
2023-04-26T03:36:50.715Z,4.40
2023-04-26T03:37:52.495Z,4.50
2023-04-26T03:38:50.854Z,4.50
2023-04-26T03:39:50.674Z,4.60
2023-04-26T03:40:50.730Z,4.60
2023-04-26T03:41:50.695Z,4.30
2023-04-26T03:42:50.639Z,4.40
2023-04-26T03:43:50.637Z,4.80
2023-04-26T03:44:50.559Z,4.30
2023-04-26T03:45:50.605Z,4.10
2023-04-26T03:46:50.554Z,4.10
2023-04-26T03:47:50.570Z,4.20
2023-04-26T03:48:50.805Z,4.30
2023-04-26T03:49:50.496Z,4.50
2023-04-26T03:50:50.501Z,4.30
2023-04-26T03:51:50.462Z,4.10
2023-04-26T03:52:50.463Z,5.10
2023-04-26T03:53:50.438Z,4.20
2023-04-26T03:54:50.431Z,4.20
2023-04-26T03:55:50.434Z,4.40
2023-04-26T03:56:50.409Z,4.50
2023-04-26T03:57:50.421Z,4.30
2023-04-26T03:58:50.506Z,4.70
2023-04-26T03:59:50.368Z,4.20
2023-04-26T04:00:50.390Z,4.50
2023-04-26T04:01:50.345Z,4.60
2023-04-26T04:02:50.416Z,4.20
2023-04-26T04:03:50.497Z,4.10
2023-04-26T04:04:50.408Z,4.20
2023-04-26T04:05:50.296Z,3.90
2023-04-26T04:06:50.291Z,4.00
2023-04-26T04:07:50.260Z,4.30
2023-04-26T04:08:50.540Z,4.40
2023-04-26T04:09:50.240Z,4.00
2023-04-26T04:10:50.244Z,4.20
2023-04-26T04:11:50.208Z,4.30
2023-04-26T04:12:50.212Z,4.30
2023-04-26T04:13:50.193Z,4.40
2023-04-26T04:14:50.184Z,4.30
2023-04-26T04:15:50.229Z,4.10
2023-04-26T04:16:50.151Z,4.50
2023-04-26T04:17:50.186Z,4.50
2023-04-26T04:18:50.462Z,4.40
2023-04-26T04:19:50.150Z,4.40
2023-04-26T04:20:50.111Z,4.10
2023-04-26T04:21:50.088Z,4.00
2023-04-26T04:22:50.078Z,3.90
2023-04-26T04:23:50.063Z,4.00
2023-04-26T04:24:50.051Z,4.60
2023-04-26T04:25:50.058Z,4.30
2023-04-26T04:26:50.038Z,4.70
2023-04-26T04:27:50.017Z,4.30
2023-04-26T04:28:50.068Z,4.10
2023-04-26T04:29:49.976Z,4.30
2023-04-26T04:30:50.032Z,4.40
2023-04-26T04:31:49.974Z,4.40
2023-04-26T04:32:49.984Z,3.80
2023-04-26T04:33:49.927Z,4.30
2023-04-26T04:34:49.922Z,4.90
2023-04-26T04:35:49.947Z,4.40
2023-04-26T04:36:49.901Z,4.60
2023-04-26T04:37:49.895Z,4.00
2023-04-26T04:38:50.051Z,3.90
2023-04-26T04:39:49.873Z,4.60
2023-04-26T04:40:49.859Z,4.80
2023-04-26T04:41:49.855Z,4.10
2023-04-26T04:42:49.821Z,4.50
2023-04-26T04:43:49.812Z,4.00
2023-04-26T04:44:49.859Z,4.20
2023-04-26T04:45:49.790Z,4.50
2023-04-26T04:46:49.814Z,4.20
2023-04-26T04:47:49.811Z,3.90
2023-04-26T04:48:50.094Z,4.30
2023-04-26T04:49:49.767Z,4.60
2023-04-26T04:50:49.720Z,4.40
2023-04-26T04:51:49.706Z,4.40
2023-04-26T04:52:49.694Z,4.80
2023-04-26T04:53:49.681Z,4.40
2023-04-26T04:54:49.682Z,4.40
2023-04-26T04:55:49.667Z,4.30
2023-04-26T04:56:49.641Z,4.40
2023-04-26T04:57:49.626Z,4.40
2023-04-26T04:58:49.767Z,4.00
2023-04-26T04:59:49.620Z,5.00
2023-04-26T05:00:49.618Z,4.60
2023-04-26T05:01:49.644Z,4.50
2023-04-26T05:02:49.713Z,4.40
2023-04-26T05:03:49.772Z,4.20
2023-04-26T05:04:49.626Z,4.80
2023-04-26T05:05:49.539Z,4.60
2023-04-26T05:06:49.525Z,4.70
2023-04-26T05:07:49.511Z,4.60
2023-04-26T05:08:49.496Z,4.90
2023-04-26T05:09:49.531Z,5.40
2023-04-26T05:10:49.499Z,4.80
2023-04-26T05:11:49.478Z,4.70
2023-04-26T05:12:49.458Z,4.40
2023-04-26T05:13:51.532Z,4.60
2023-04-26T05:14:49.482Z,4.70
2023-04-26T05:15:49.422Z,4.90
2023-04-26T05:16:49.516Z,4.90
2023-04-26T05:17:49.401Z,4.90
2023-04-26T05:18:49.410Z,4.70
2023-04-26T05:19:49.399Z,5.20
2023-04-26T05:20:49.348Z,4.50
2023-04-26T05:21:49.328Z,5.00
2023-04-26T05:22:49.335Z,4.80
2023-04-26T05:23:49.374Z,4.30
2023-04-26T05:24:49.296Z,4.60
2023-04-26T05:25:49.333Z,4.40
2023-04-26T05:26:49.287Z,4.90
2023-04-26T05:27:49.940Z,4.60
2023-04-26T05:28:49.273Z,4.60
2023-04-26T05:29:49.245Z,5.30
2023-04-26T05:30:49.251Z,4.50
2023-04-26T05:31:49.286Z,4.50
2023-04-26T05:32:49.228Z,4.60
2023-04-26T05:33:49.357Z,4.30
2023-04-26T05:34:49.170Z,4.50
2023-04-26T05:35:49.193Z,4.40
2023-04-26T05:36:49.145Z,4.00
2023-04-26T05:37:49.135Z,4.50
2023-04-26T05:38:49.119Z,4.30
2023-04-26T05:39:49.127Z,4.20
2023-04-26T05:40:49.110Z,4.30
2023-04-26T05:41:49.090Z,4.60
2023-04-26T05:42:49.062Z,4.60
2023-04-26T05:43:49.074Z,4.80
2023-04-26T05:44:49.037Z,4.30
2023-04-26T05:45:49.067Z,4.10
2023-04-26T05:46:49.028Z,4.30
2023-04-26T05:47:49.242Z,4.70
2023-04-26T05:48:48.998Z,4.40
2023-04-26T05:49:48.975Z,4.20
2023-04-26T05:50:48.992Z,5.00
2023-04-26T05:51:48.958Z,4.40
2023-04-26T05:52:48.930Z,4.30
2023-04-26T05:53:48.942Z,4.30
2023-04-26T05:54:48.897Z,4.60
2023-04-26T05:55:48.917Z,4.10
2023-04-26T05:56:48.879Z,4.20
2023-04-26T05:57:48.903Z,3.90
2023-04-26T05:58:48.845Z,4.90
2023-04-26T05:59:48.846Z,4.40
2023-04-26T06:00:48.852Z,4.40
2023-04-26T06:01:48.852Z,3.80
2023-04-26T06:02:48.918Z,4.00
2023-04-26T06:03:48.995Z,3.60
2023-04-26T06:04:48.928Z,4.10
2023-04-26T06:05:48.804Z,4.30
2023-04-26T06:06:48.749Z,4.00
2023-04-26T06:07:48.746Z,4.60
2023-04-26T06:08:48.740Z,4.10
2023-04-26T06:09:48.737Z,4.20
2023-04-26T06:10:48.724Z,4.30
2023-04-26T06:11:48.692Z,4.70
2023-04-26T06:12:48.814Z,4.30
2023-04-26T06:13:48.664Z,4.00
2023-04-26T06:14:48.649Z,4.30
2023-04-26T06:15:48.657Z,4.30
2023-04-26T06:16:48.657Z,4.40
2023-04-26T06:17:48.636Z,4.20
2023-04-26T06:18:48.637Z,4.50
2023-04-26T06:19:48.608Z,4.30
2023-04-26T06:20:48.560Z,4.60
2023-04-26T06:21:48.738Z,4.70
2023-04-26T06:22:48.581Z,5.30
2023-04-26T06:23:48.536Z,4.20
2023-04-26T06:24:48.527Z,4.40
2023-04-26T06:25:48.596Z,4.30
2023-04-26T06:26:48.536Z,4.30
2023-04-26T06:27:48.478Z,4.20
2023-04-26T06:28:48.457Z,4.30
2023-04-26T06:29:48.463Z,4.20
2023-04-26T06:30:48.525Z,4.20
2023-04-26T06:31:48.535Z,4.60
2023-04-26T06:32:48.645Z,4.70
2023-04-26T06:33:48.409Z,4.10
2023-04-26T06:34:48.381Z,4.30
2023-04-26T06:35:48.416Z,4.40
2023-04-26T06:36:48.377Z,4.50
2023-04-26T06:37:48.354Z,4.30
2023-04-26T06:38:48.339Z,4.30
2023-04-26T06:39:48.321Z,4.70
2023-04-26T06:40:48.324Z,4.30
2023-04-26T06:41:48.949Z,4.70
2023-04-26T06:42:48.293Z,4.80
2023-04-26T06:43:48.272Z,4.80
2023-04-26T06:44:48.255Z,4.70
2023-04-26T06:45:48.264Z,4.10
2023-04-26T06:46:48.352Z,4.40
2023-04-26T06:47:48.305Z,5.30
2023-04-26T06:48:48.200Z,4.00
2023-04-26T06:49:48.187Z,4.90
2023-04-26T06:50:48.186Z,4.70
2023-04-26T06:51:48.233Z,5.20
2023-04-26T06:52:48.205Z,4.10
2023-04-26T06:53:48.188Z,4.70
2023-04-26T06:54:56.701Z,4.60
2023-04-26T06:55:48.121Z,4.20
2023-04-26T06:56:48.128Z,5.40
2023-04-26T06:57:48.175Z,4.20
2023-04-26T06:58:48.240Z,4.80
2023-04-26T06:59:48.069Z,4.50
2023-04-26T07:00:48.039Z,4.80
2023-04-26T07:01:48.146Z,4.70
2023-04-26T07:02:48.128Z,4.60
2023-04-26T07:03:48.184Z,4.70
2023-04-26T07:04:48.135Z,4.80
2023-04-26T07:05:47.990Z,4.60
2023-04-26T07:06:48.378Z,4.40
2023-04-26T07:07:47.949Z,4.40
2023-04-26T07:08:47.986Z,4.50
2023-04-26T07:09:47.950Z,4.60
2023-04-26T07:10:47.932Z,4.10
2023-04-26T07:11:47.929Z,4.60
2023-04-26T07:12:47.898Z,5.00
2023-04-26T07:13:47.906Z,4.00
2023-04-26T07:14:47.856Z,4.80
2023-04-26T07:15:47.943Z,4.30
2023-04-26T07:16:48.229Z,4.60
2023-04-26T07:17:47.867Z,4.40
2023-04-26T07:18:47.811Z,4.40
2023-04-26T07:19:47.821Z,4.80
2023-04-26T07:20:47.951Z,4.40
2023-04-26T07:21:47.934Z,4.00
2023-04-26T07:22:47.769Z,4.10
2023-04-26T07:23:47.793Z,4.40
2023-04-26T07:24:47.743Z,4.30
2023-04-26T07:25:47.724Z,3.70
2023-04-26T07:26:47.743Z,4.00
2023-04-26T07:27:47.708Z,4.00
2023-04-26T07:28:47.688Z,3.20
2023-04-26T07:29:47.670Z,3.80
2023-04-26T07:30:47.667Z,3.90
2023-04-26T07:31:47.665Z,3.70
2023-04-26T07:32:47.704Z,3.20
2023-04-26T07:33:47.641Z,3.90
2023-04-26T07:34:47.604Z,4.20
2023-04-26T07:35:47.592Z,4.50
2023-04-26T07:36:47.613Z,3.60
2023-04-26T07:37:47.570Z,3.70
2023-04-26T07:38:47.560Z,3.80
2023-04-26T07:39:47.541Z,3.50
2023-04-26T07:40:47.521Z,4.30
2023-04-26T07:41:47.627Z,3.50
2023-04-26T07:42:47.488Z,4.00
2023-04-26T07:43:47.482Z,3.70
2023-04-26T07:44:47.494Z,3.90
2023-04-26T07:45:47.499Z,3.60
2023-04-26T07:46:47.457Z,3.80
2023-04-26T07:47:47.507Z,3.90
2023-04-26T07:48:47.426Z,3.40
2023-04-26T07:49:47.818Z,4.20
2023-04-26T07:50:47.411Z,3.60
2023-04-26T07:51:47.399Z,3.50
2023-04-26T07:52:47.378Z,3.90
2023-04-26T07:53:47.403Z,4.10
2023-04-26T07:54:47.341Z,3.70
2023-04-26T07:55:47.345Z,3.40
2023-04-26T07:56:47.345Z,3.70
2023-04-26T07:57:47.308Z,3.90
2023-04-26T07:58:47.306Z,3.60
2023-04-26T07:59:47.270Z,3.90
2023-04-26T08:00:47.264Z,4.10
2023-04-26T08:01:47.303Z,3.80
2023-04-26T08:02:47.373Z,3.60
2023-04-26T08:03:47.411Z,3.50
2023-04-26T08:04:47.370Z,3.20
2023-04-26T08:05:47.360Z,3.60
2023-04-26T08:06:47.221Z,4.10
2023-04-26T08:07:47.176Z,3.70
2023-04-26T08:08:47.162Z,3.90
2023-04-26T08:09:47.157Z,3.40
2023-04-26T08:10:47.125Z,3.70
2023-04-26T08:11:47.195Z,3.20
2023-04-26T08:12:47.214Z,3.40
2023-04-26T08:13:47.107Z,3.40
2023-04-26T08:14:47.082Z,3.30
2023-04-26T08:15:47.055Z,3.10
2023-04-26T08:16:47.065Z,3.00
2023-04-26T08:17:47.083Z,3.00
2023-04-26T08:18:47.140Z,3.40
2023-04-26T08:19:47.023Z,3.10
2023-04-26T08:20:47.021Z,3.30
2023-04-26T08:21:46.976Z,3.20
2023-04-26T08:22:47.012Z,3.30
2023-04-26T08:23:46.953Z,3.50
2023-04-26T08:24:46.952Z,3.60
2023-04-26T08:25:48.044Z,3.40
2023-04-26T08:26:46.923Z,3.20
2023-04-26T08:27:46.969Z,3.30
2023-04-26T08:28:46.901Z,3.30
2023-04-26T08:29:46.900Z,3.50
2023-04-26T08:30:46.909Z,3.50
2023-04-26T08:31:46.864Z,3.50
2023-04-26T08:32:46.914Z,2.90
2023-04-26T08:33:46.852Z,3.30
2023-04-26T08:34:46.796Z,4.00
2023-04-26T08:35:46.813Z,3.40
2023-04-26T08:36:46.770Z,3.20
2023-04-26T08:37:46.795Z,3.30
2023-04-26T08:38:46.766Z,3.30
2023-04-26T08:39:46.742Z,3.10
2023-04-26T08:40:46.733Z,4.00
2023-04-26T08:41:46.728Z,3.30
2023-04-26T08:42:46.725Z,3.30
2023-04-26T08:43:46.710Z,3.30
2023-04-26T08:44:46.669Z,3.50
2023-04-26T08:45:46.704Z,3.70
2023-04-26T08:46:46.761Z,3.40
2023-04-26T08:47:46.641Z,3.00
2023-04-26T08:48:46.632Z,2.90
2023-04-26T08:49:46.613Z,2.70
2023-04-26T08:50:46.729Z,3.10
2023-04-26T08:51:46.605Z,3.30
2023-04-26T08:52:46.575Z,3.50
2023-04-26T08:53:46.544Z,3.00
2023-04-26T08:54:46.571Z,4.00
2023-04-26T08:55:46.535Z,3.50
2023-04-26T08:56:46.515Z,3.00
2023-04-26T08:57:46.536Z,3.40
2023-04-26T08:58:46.516Z,3.40
2023-04-26T08:59:46.497Z,3.10
2023-04-26T09:00:46.533Z,3.00
2023-04-26T09:01:46.473Z,3.70
2023-04-26T09:02:46.556Z,3.00
2023-04-26T09:03:46.595Z,3.60
2023-04-26T09:04:46.502Z,3.70
2023-04-26T09:05:46.477Z,3.10
2023-04-26T09:06:46.397Z,2.80
2023-04-26T09:07:46.375Z,2.80
2023-04-26T09:08:46.376Z,3.00
2023-04-26T09:09:46.357Z,3.10
2023-04-26T09:10:46.375Z,3.30
2023-04-26T09:11:46.409Z,3.10
2023-04-26T09:12:46.315Z,2.90
2023-04-26T09:13:46.296Z,3.40
2023-04-26T09:14:46.276Z,3.00
2023-04-26T09:15:46.285Z,2.80
2023-04-26T09:16:46.262Z,3.20
2023-04-26T09:17:46.361Z,3.10
2023-04-26T09:18:46.223Z,3.00
2023-04-26T09:19:46.230Z,2.90
2023-04-26T09:20:46.201Z,2.90
2023-04-26T09:21:46.201Z,2.90
2023-04-26T09:22:46.196Z,3.00
2023-04-26T09:23:46.284Z,3.40
2023-04-26T09:24:46.140Z,3.30
2023-04-26T09:25:46.128Z,2.90
2023-04-26T09:26:46.124Z,3.10
2023-04-26T09:27:46.126Z,3.00
2023-04-26T09:28:46.096Z,3.10
2023-04-26T09:29:46.090Z,2.90
2023-04-26T09:30:46.108Z,3.00
2023-04-26T09:31:48.559Z,3.30
2023-04-26T09:32:46.095Z,3.20
2023-04-26T09:33:46.005Z,3.10
2023-04-26T09:34:46.010Z,2.60
2023-04-26T09:35:45.999Z,3.20
2023-04-26T09:36:45.993Z,3.10
2023-04-26T09:37:57.498Z,3.10
2023-04-26T09:38:46.178Z,2.90
2023-04-26T09:39:45.938Z,2.90
2023-04-26T09:40:45.939Z,3.10
2023-04-26T09:41:45.951Z,2.90
2023-04-26T09:42:45.955Z,3.20
2023-04-26T09:43:45.877Z,2.40
2023-04-26T09:44:45.882Z,2.90
2023-04-26T09:45:45.960Z,3.40
2023-04-26T09:46:45.897Z,3.00
2023-04-26T09:47:45.937Z,2.80
2023-04-26T09:48:46.650Z,3.00
2023-04-26T09:49:45.826Z,3.10
2023-04-26T09:50:45.793Z,2.90
2023-04-26T09:51:45.772Z,2.80
2023-04-26T09:52:45.771Z,2.90
2023-04-26T09:53:45.777Z,3.20
2023-04-26T09:54:45.769Z,3.00
2023-04-26T09:55:45.748Z,3.10
2023-04-26T09:56:45.717Z,3.20
2023-04-26T09:57:45.703Z,3.00
2023-04-26T09:58:45.713Z,2.90
2023-04-26T09:59:45.680Z,2.70
2023-04-26T10:00:45.708Z,2.80
2023-04-26T10:01:45.652Z,3.00
2023-04-26T10:02:45.680Z,2.40
2023-04-26T10:03:45.768Z,3.10
2023-04-26T10:04:45.666Z,3.00
2023-04-26T10:05:45.605Z,2.90
2023-04-26T10:06:45.588Z,2.90
2023-04-26T10:07:45.581Z,3.10
2023-04-26T10:08:45.617Z,2.50
2023-04-26T10:09:45.551Z,2.90
2023-04-26T10:10:45.525Z,2.60
2023-04-26T10:11:45.516Z,3.00
2023-04-26T10:12:45.506Z,2.70
2023-04-26T10:13:45.539Z,2.90
2023-04-26T10:14:45.476Z,2.90
2023-04-26T10:15:45.456Z,2.80
2023-04-26T10:16:45.546Z,2.50
2023-04-26T10:17:45.463Z,2.70
2023-04-26T10:18:45.568Z,2.60
2023-04-26T10:19:45.405Z,2.70
2023-04-26T10:20:45.415Z,2.90
2023-04-26T10:21:45.401Z,3.10
2023-04-26T10:22:45.373Z,2.80
2023-04-26T10:23:45.388Z,3.00
2023-04-26T10:24:45.341Z,3.00
2023-04-26T10:25:45.333Z,3.30
2023-04-26T10:26:45.318Z,3.00
2023-04-26T10:27:45.334Z,2.90
2023-04-26T10:28:45.324Z,2.60
2023-04-26T10:29:45.274Z,2.60
2023-04-26T10:30:45.284Z,2.90
2023-04-26T10:31:45.326Z,2.70
2023-04-26T10:32:45.287Z,3.00
2023-04-26T10:33:45.247Z,2.60
2023-04-26T10:34:45.215Z,3.00
2023-04-26T10:35:45.189Z,2.90
2023-04-26T10:36:45.179Z,3.30
2023-04-26T10:37:45.166Z,2.80
2023-04-26T10:38:45.209Z,3.20
2023-04-26T10:39:45.180Z,2.80
2023-04-26T10:40:45.142Z,2.90
2023-04-26T10:41:45.105Z,2.90
2023-04-26T10:42:45.109Z,7.60
2023-04-26T10:43:45.098Z,2.80
2023-04-26T10:44:45.081Z,2.90
2023-04-26T10:45:45.212Z,2.70
2023-04-26T10:46:45.067Z,3.20
2023-04-26T10:47:45.066Z,3.20
2023-04-26T10:48:45.076Z,3.10
2023-04-26T10:49:45.085Z,2.70
2023-04-26T10:50:44.998Z,2.90
2023-04-26T10:51:44.990Z,2.70
2023-04-26T10:52:44.983Z,2.90
2023-04-26T10:53:44.980Z,3.30
2023-04-26T10:54:44.948Z,3.00
2023-04-26T10:55:44.927Z,3.00
2023-04-26T10:56:44.928Z,2.60
2023-04-26T10:57:44.923Z,2.70
2023-04-26T10:58:44.900Z,3.00
2023-04-26T10:59:54.429Z,2.80
2023-04-26T11:00:44.879Z,3.00
2023-04-26T11:01:44.882Z,2.70
2023-04-26T11:02:44.909Z,2.70
2023-04-26T11:03:44.958Z,3.00
2023-04-26T11:04:44.838Z,2.90
2023-04-26T11:05:44.788Z,3.00
2023-04-26T11:06:44.786Z,2.80
2023-04-26T11:07:44.790Z,3.00
2023-04-26T11:08:44.811Z,2.80
2023-04-26T11:09:44.741Z,2.60
2023-04-26T11:10:44.733Z,3.40
2023-04-26T11:11:44.717Z,3.50
2023-04-26T11:12:44.732Z,2.80
2023-04-26T11:13:44.723Z,3.00
2023-04-26T11:14:44.677Z,2.90
2023-04-26T11:15:52.060Z,2.80
2023-04-26T11:16:44.675Z,2.80
2023-04-26T11:17:44.648Z,3.50
2023-04-26T11:18:44.637Z,2.70
2023-04-26T11:19:44.604Z,2.50
2023-04-26T11:20:44.618Z,2.70
2023-04-26T11:21:44.595Z,2.50
2023-04-26T11:22:44.593Z,2.60
2023-04-26T11:23:44.576Z,2.50
2023-04-26T11:24:44.560Z,2.90
2023-04-26T11:25:44.557Z,2.90
2023-04-26T11:26:44.523Z,2.50
2023-04-26T11:27:44.497Z,2.80
2023-04-26T11:28:44.539Z,2.70
2023-04-26T11:29:44.471Z,2.60
2023-04-26T11:30:44.468Z,2.50
2023-04-26T11:31:44.475Z,2.60
2023-04-26T11:32:44.541Z,2.60
2023-04-26T11:33:44.454Z,2.60
2023-04-26T11:34:44.414Z,3.30
2023-04-26T11:35:44.397Z,2.70
2023-04-26T11:36:44.392Z,2.80
2023-04-26T11:37:44.372Z,3.20
2023-04-26T11:38:44.388Z,2.50
2023-04-26T11:39:44.346Z,2.80
2023-04-26T11:40:44.337Z,2.60
2023-04-26T11:41:44.313Z,3.10
2023-04-26T11:42:44.317Z,2.60
2023-04-26T11:43:44.346Z,2.90
2023-04-26T11:44:45.143Z,2.80
2023-04-26T11:45:44.277Z,3.70
2023-04-26T11:46:44.273Z,2.90
2023-04-26T11:47:44.261Z,2.40
2023-04-26T11:48:44.284Z,2.70
2023-04-26T11:49:44.203Z,3.00
2023-04-26T11:50:44.229Z,2.70
2023-04-26T11:51:44.204Z,2.80
2023-04-26T11:52:44.181Z,2.90
2023-04-26T11:53:44.173Z,2.40
2023-04-26T11:54:44.159Z,2.50
2023-04-26T11:55:44.139Z,2.80
2023-04-26T11:56:44.122Z,2.60
2023-04-26T11:57:44.106Z,2.70
2023-04-26T11:58:44.114Z,2.50
2023-04-26T11:59:44.100Z,2.50
2023-04-26T12:00:44.097Z,2.40
2023-04-26T12:01:44.094Z,2.30
2023-04-26T12:02:44.139Z,2.50
2023-04-26T12:03:44.164Z,2.30
2023-04-26T12:04:44.393Z,2.50
2023-04-26T12:05:44.016Z,2.40
2023-04-26T12:06:44.006Z,2.60
2023-04-26T12:07:43.990Z,2.60
2023-04-26T12:08:43.979Z,3.00
2023-04-26T12:09:44.048Z,2.70
2023-04-26T12:10:43.924Z,2.90
2023-04-26T12:11:43.927Z,2.70
2023-04-26T12:12:43.929Z,2.70
2023-04-26T12:13:43.884Z,2.70
2023-04-26T12:14:43.882Z,2.50
2023-04-26T12:15:43.856Z,2.60
2023-04-26T12:16:43.861Z,2.50
2023-04-26T12:17:43.870Z,2.50
2023-04-26T12:18:43.824Z,2.80
2023-04-26T12:19:43.805Z,3.00
2023-04-26T12:20:43.802Z,2.50
2023-04-26T12:21:43.799Z,2.60
2023-04-26T12:22:43.791Z,2.80
2023-04-26T12:23:43.758Z,2.80
2023-04-26T12:24:43.749Z,2.60
2023-04-26T12:25:43.736Z,3.10
2023-04-26T12:26:43.736Z,3.10
2023-04-26T12:27:43.704Z,3.30
2023-04-26T12:28:43.766Z,2.50
2023-04-26T12:29:43.679Z,3.70
2023-04-26T12:30:43.690Z,3.50
2023-04-26T12:31:43.677Z,2.70
2023-04-26T12:32:43.665Z,2.50
2023-04-26T12:33:43.667Z,2.70
2023-04-26T12:34:43.613Z,2.60
2023-04-26T12:35:43.613Z,3.10
2023-04-26T12:36:43.577Z,2.60
2023-04-26T12:37:43.558Z,2.60
2023-04-26T12:38:43.577Z,2.80
2023-04-26T12:39:43.536Z,3.00
2023-04-26T12:40:44.269Z,2.40
2023-04-26T12:41:43.509Z,2.40
2023-04-26T12:42:43.510Z,2.70
2023-04-26T12:43:43.531Z,2.70
2023-04-26T12:44:43.473Z,2.80
2023-04-26T12:45:43.481Z,2.60
2023-04-26T12:46:43.572Z,2.80
2023-04-26T12:47:43.519Z,2.60
2023-04-26T12:48:43.478Z,2.90
2023-04-26T12:49:43.403Z,3.10
2023-04-26T12:50:43.424Z,2.60
2023-04-26T12:51:43.384Z,3.00
2023-04-26T12:52:43.395Z,3.20
2023-04-26T12:53:43.378Z,2.70
2023-04-26T12:54:43.342Z,3.10
2023-04-26T12:55:43.319Z,2.90
2023-04-26T12:56:43.318Z,2.70
2023-04-26T12:57:43.563Z,2.80
2023-04-26T12:58:43.310Z,2.80
2023-04-26T12:59:43.290Z,3.20
2023-04-26T13:00:44.607Z,2.70
2023-04-26T13:01:43.307Z,2.80
2023-04-26T13:02:43.337Z,2.60
2023-04-26T13:03:43.389Z,2.60
2023-04-26T13:04:43.407Z,2.90
2023-04-26T13:05:43.247Z,3.20
2023-04-26T13:06:43.194Z,2.50
2023-04-26T13:07:43.182Z,2.90
2023-04-26T13:08:43.181Z,2.30
2023-04-26T13:09:43.151Z,2.30
2023-04-26T13:10:43.161Z,2.60
2023-04-26T13:11:43.129Z,2.70
2023-04-26T13:12:43.115Z,3.00
2023-04-26T13:13:44.640Z,3.20
2023-04-26T13:14:43.087Z,2.80
2023-04-26T13:15:43.110Z,3.10
2023-04-26T13:16:43.045Z,2.70
2023-04-26T13:17:43.187Z,2.70
2023-04-26T13:18:43.026Z,2.80